Time;durP1;ratioP1;P1;durP2;ratioP2;P2;SDS_P1;SDS_P2;PMS_P1;PMS_P2;Temp;Humidity;BMP_temperature;BMP_pressure;BME280_temperature;BME280_humidity;BME280_pressure;Samples;Min_cycle;Max_cycle;Signal;HPM_P1;HPM_P2
2023/09/19 00:01:56;;;;;;;;;;;;;;;20.96;67.12;99749.88;6351398;27;20051;-74
2023/09/19 00:04:57;;;;;;;0.10;0.10;;;;;;;21.04;67.72;99751.66;6361497;27;19983;-74
2023/09/19 00:07:58;;;;;;;0.00;0.00;;;;;;;21.03;67.22;99742.06;6350070;28;20052;-73
2023/09/19 00:11:05;;;;;;;0.00;0.00;;;;;;;21.00;67.06;99737.94;6351257;27;20438;-74
2023/09/19 00:14:08;;;;;;;0.00;0.00;;;;;;;20.96;67.57;99739.28;6352740;27;20148;-71
2023/09/19 00:17:09;;;;;;;0.00;0.00;;;;;;;20.94;67.63;99733.31;6348638;27;20082;-71
2023/09/19 00:20:12;;;;;;;0.00;0.00;;;;;;;20.95;67.77;99732.31;6350167;27;20054;-74
2023/09/19 00:23:14;;;;;;;0.00;0.00;;;;;;;21.00;67.60;99729.97;6349528;27;20143;-71
2023/09/19 00:26:15;;;;;;;0.00;0.00;;;;;;;21.05;67.95;99724.16;6349510;27;20047;-71
2023/09/19 00:29:16;;;;;;;0.00;0.00;;;;;;;21.06;68.12;99723.97;6348656;27;20056;-71
2023/09/19 00:32:17;;;;;;;0.00;0.00;;;;;;;20.95;68.88;99712.91;6358549;27;20054;-73
2023/09/19 00:35:24;;;;;;;0.00;0.00;;;;;;;20.93;68.54;99711.25;6394631;27;20092;-74
2023/09/19 00:38:26;;;;;;;0.00;0.00;;;;;;;20.95;69.35;99703.13;6365583;27;20035;-71
2023/09/19 00:41:30;;;;;;;0.00;0.00;;;;;;;21.01;68.78;99706.94;6360711;27;20047;-71
2023/09/19 00:44:31;;;;;;;0.90;0.13;;;;;;;20.90;68.93;99706.28;6344051;27;20047;-72
2023/09/19 00:47:32;;;;;;;0.00;0.00;;;;;;;20.92;68.32;99695.53;6342889;27;20133;-71
2023/09/19 00:50:33;;;;;;;0.00;0.00;;;;;;;20.91;68.99;99691.19;6342794;27;20107;-71
2023/09/19 00:53:34;;;;;;;0.00;0.00;;;;;;;20.91;68.41;99691.19;6346565;27;20115;-72
2023/09/19 00:56:37;;;;;;;0.00;0.00;;;;;;;20.96;68.94;99685.38;6349916;27;20047;-71
2023/09/19 00:59:42;;;;;;;0.00;0.00;;;;;;;20.88;69.05;99680.94;6348611;27;21776;-71
2023/09/19 01:02:43;;;;;;;0.10;0.10;;;;;;;20.86;69.66;99667.84;6341492;28;20053;-71
2023/09/19 01:05:44;;;;;;;0.00;0.00;;;;;;;20.80;68.53;99665.06;6360707;27;20429;-72
2023/09/19 01:08:45;;;;;;;0.00;0.00;;;;;;;20.81;69.09;99659.56;6358805;27;20040;-72
2023/09/19 01:11:50;;;;;;;0.07;0.07;;;;;;;20.82;69.12;99663.06;6349795;28;20476;-72
2023/09/19 01:15:04;;;;;;;0.00;0.00;;;;;;;20.80;69.60;99657.94;6348060;27;20108;-71
2023/09/19 01:18:30;;;;;;;0.00;0.00;;;;;;;20.75;68.64;99656.78;6352705;27;20052;-71
2023/09/19 01:21:50;;;;;;;0.00;0.00;;;;;;;20.72;69.05;99647.34;6346681;27;20399;-72
2023/09/19 01:25:18;;;;;;;0.00;0.00;;;;;;;20.68;68.96;99654.78;6345846;27;20054;-72
2023/09/19 01:28:36;;;;;;;0.35;0.10;;;;;;;20.73;68.42;99646.31;6323167;28;20044;-75
2023/09/19 01:31:38;;;;;;;0.13;0.13;;;;;;;20.71;67.95;99646.53;6343978;27;20558;-73
2023/09/19 01:34:49;;;;;;;;;;;;;;;20.85;67.42;99633.53;6361839;27;20066;-73
2023/09/19 01:37:50;;;;;;;0.00;0.00;;;;;;;20.80;67.02;99626.09;6348160;27;20279;-74
2023/09/19 01:41:08;;;;;;;0.00;0.00;;;;;;;20.78;67.24;99636.06;6357041;27;20527;-74
2023/09/19 01:44:18;;;;;;;0.00;0.00;;;;;;;20.83;67.81;99632.88;6347594;27;20052;-75
2023/09/19 01:47:51;;;;;;;0.00;0.00;;;;;;;20.90;67.54;99629.41;6349173;28;20083;-74
2023/09/19 01:51:06;;;;;;;0.70;0.65;;;;;;;20.75;68.25;99622.31;6343778;27;20116;-74
2023/09/19 01:54:12;;;;;;;0.00;0.00;;;;;;;20.73;66.65;99628.63;6350697;27;20054;-73
2023/09/19 01:57:35;;;;;;;0.00;0.00;;;;;;;20.81;66.75;99630.41;6347241;27;20441;-74
2023/09/19 02:00:40;;;;;;;0.00;0.00;;;;;;;20.70;71.07;99613.03;6331574;27;20130;-71
2023/09/19 02:03:41;;;;;;;0.10;0.10;;;;;;;20.51;71.60;99616.88;6370298;27;20130;-72
2023/09/19 02:06:42;;;;;;;0.00;0.00;;;;;;;20.46;71.82;99605.09;6353411;27;20142;-72
2023/09/19 02:09:43;;;;;;;0.00;0.00;;;;;;;20.42;72.25;99604.63;6362923;27;20131;-71
2023/09/19 02:12:45;;;;;;;0.00;0.00;;;;;;;20.43;71.34;99602.81;6346851;27;20279;-71
2023/09/19 02:15:46;;;;;;;0.00;0.00;;;;;;;20.36;71.79;99602.63;6346160;28;20043;-72
2023/09/19 02:18:51;;;;;;;0.00;0.00;;;;;;;20.37;70.78;99596.34;6346685;28;20051;-72
2023/09/19 02:21:52;;;;;;;0.00;0.00;;;;;;;20.33;71.23;99590.56;6359426;27;20058;-72
2023/09/19 02:25:00;;;;;;;0.00;0.00;;;;;;;20.28;71.42;99595.53;6363536;27;20051;-72
2023/09/19 02:28:03;;;;;;;0.00;0.00;;;;;;;20.33;70.73;99593.22;6347618;28;20403;-71
2023/09/19 02:31:07;;;;;;;0.00;0.00;;;;;;;20.32;70.54;99588.91;6349053;27;20063;-71
2023/09/19 02:34:08;;;;;;;0.00;0.00;;;;;;;20.39;70.22;99582.94;6346526;28;20383;-71
2023/09/19 02:37:10;;;;;;;0.00;0.00;;;;;;;20.38;69.57;99591.88;6348036;28;20050;-71
2023/09/19 02:40:25;;;;;;;0.00;0.00;;;;;;;20.46;69.56;99582.06;6347584;28;20050;-72
2023/09/19 02:43:27;;;;;;;0.00;0.00;;;;;;;20.46;69.79;99590.03;6353626;27;20118;-71
2023/09/19 02:46:28;;;;;;;;;;;;;;;20.43;69.63;99582.44;6347146;27;20052;-72
2023/09/19 02:49:29;;;;;;;0.00;0.00;;;;;;;20.47;69.59;99572.34;6341986;27;20402;-71
2023/09/19 02:52:30;;;;;;;0.00;0.00;;;;;;;20.41;69.70;99573.00;6353071;27;20086;-73
2023/09/19 02:55:31;;;;;;;0.00;0.00;;;;;;;20.33;70.18;99579.97;6346837;27;20138;-72
2023/09/19 02:58:35;;;;;;;0.00;0.00;;;;;;;20.32;70.62;99585.41;6346540;27;20048;-71
2023/09/19 03:01:38;;;;;;;0.00;0.00;;;;;;;20.39;70.23;99573.16;6354400;27;20074;-74
2023/09/19 03:04:41;;;;;;;0.00;0.00;;;;;;;20.37;70.33;99577.81;6356767;27;20097;-71
2023/09/19 03:07:43;;;;;;;0.00;0.00;;;;;;;20.31;69.71;99568.69;6351421;27;20059;-71
2023/09/19 03:10:46;;;;;;;0.00;0.00;;;;;;;20.34;69.69;99567.53;6350549;27;20083;-72
2023/09/19 03:13:54;;;;;;;0.00;0.00;;;;;;;20.40;69.34;99568.69;6345300;28;20047;-71
2023/09/19 03:16:54;;;;;;;0.00;0.00;;;;;;;20.33;69.02;99579.97;6349454;28;20521;-71
2023/09/19 03:19:57;;;;;;;0.00;0.00;;;;;;;20.43;68.32;99579.78;6345734;28;20052;-72
2023/09/19 03:22:58;;;;;;;0.00;0.00;;;;;;;20.25;68.84;99581.81;6346441;28;20051;-72
2023/09/19 03:25:59;;;;;;;0.00;0.00;;;;;;;20.23;68.48;99581.13;6355873;27;20089;-71
2023/09/19 03:29:06;;;;;;;0.00;0.00;;;;;;;20.29;68.33;99575.16;6360152;27;20051;-72
2023/09/19 03:32:09;;;;;;;0.00;0.00;;;;;;;20.32;67.90;99573.03;6351560;27;20074;-71
2023/09/19 03:35:11;;;;;;;0.00;0.00;;;;;;;20.32;67.74;99570.38;6357407;27;20054;-72
2023/09/19 03:38:12;;;;;;;0.00;0.00;;;;;;;20.25;67.45;99565.91;6349888;27;20058;-71
2023/09/19 03:41:14;;;;;;;0.00;0.00;;;;;;;20.31;67.11;99567.88;6343934;27;20051;-71
2023/09/19 03:44:15;;;;;;;;;;;;;;;20.25;67.08;99573.84;6349360;28;20465;-72
2023/09/19 03:47:16;;;;;;;0.00;0.00;;;;;;;20.25;67.47;99573.84;6345965;27;20011;-71
2023/09/19 03:50:17;;;;;;;0.38;0.30;;;;;;;20.24;67.58;99578.34;6349009;27;20052;-71
2023/09/19 03:53:18;;;;;;;0.00;0.00;;;;;;;20.15;67.57;99576.66;6338479;28;20082;-71
2023/09/19 03:56:21;;;;;;;0.00;0.00;;;;;;;20.15;67.36;99573.19;6349495;28;20050;-71
2023/09/19 03:59:22;;;;;;;0.00;0.00;;;;;;;20.09;67.88;99566.75;6351024;27;20100;-72
2023/09/19 04:02:24;;;;;;;0.00;0.00;;;;;;;20.15;67.87;99573.19;6347618;27;20055;-72
2023/09/19 04:05:25;;;;;;;0.00;0.00;;;;;;;20.14;68.74;99575.03;6350828;27;20066;-71
2023/09/19 04:08:26;;;;;;;0.00;0.00;;;;;;;20.10;68.12;99566.59;6351397;28;20052;-72
2023/09/19 04:11:27;;;;;;;0.00;0.00;;;;;;;20.24;68.37;99569.53;6344763;28;20055;-71
2023/09/19 04:14:28;;;;;;;0.00;0.00;;;;;;;20.37;67.79;99571.69;6355490;27;20054;-72
2023/09/19 04:17:29;;;;;;;3.30;0.93;;;;;;;20.37;67.55;99577.00;6365937;27;20056;-71
2023/09/19 04:20:30;;;;;;;0.00;0.00;;;;;;;20.31;67.68;99568.69;6341744;28;20055;-72
2023/09/19 04:23:34;;;;;;;0.00;0.00;;;;;;;20.36;68.24;99576.13;6350437;28;20167;-71
2023/09/19 04:26:35;;;;;;;0.00;0.00;;;;;;;20.26;67.57;99571.03;6348710;28;20078;-72
2023/09/19 04:29:37;;;;;;;0.00;0.00;;;;;;;20.28;68.04;99578.81;6350793;27;20499;-72
2023/09/19 04:32:41;;;;;;;0.00;0.00;;;;;;;20.29;68.16;99578.63;6341198;27;20522;-74
2023/09/19 04:35:42;;;;;;;0.08;0.08;;;;;;;20.24;68.43;99577.47;6342021;27;20055;-74
2023/09/19 04:38:43;;;;;;;0.00;0.00;;;;;;;20.14;69.36;99575.03;6340448;27;20492;-74
2023/09/19 04:41:47;;;;;;;0.00;0.00;;;;;;;20.12;69.32;99574.38;6342092;27;20055;-74
2023/09/19 04:44:49;;;;;;;2.13;0.20;;;;;;;20.07;69.43;99574.84;6342158;27;20361;-74
2023/09/19 04:47:50;;;;;;;0.00;0.00;;;;;;;20.11;69.50;99570.06;6341568;27;20502;-73
2023/09/19 04:50:51;;;;;;;0.00;0.00;;;;;;;20.17;69.07;99576.50;6341023;27;20055;-74
2023/09/19 04:53:51;;;;;;;0.00;0.00;;;;;;;20.16;69.13;99581.00;6357961;27;20617;-74
2023/09/19 04:56:52;;;;;;;0.00;0.00;;;;;;;20.25;68.74;99579.97;6339669;27;20499;-71
2023/09/19 04:59:53;;;;;;;0.00;0.00;;;;;;;20.23;68.63;99586.44;6337916;27;20047;-72
2023/09/19 05:02:58;;;;;;;0.00;0.00;;;;;;;20.22;68.80;99595.38;6347906;28;20047;-72
2023/09/19 05:06:00;;;;;;;0.00;0.00;;;;;;;20.25;68.23;99595.03;6349258;28;20055;-71
2023/09/19 05:09:01;;;;;;;0.53;0.53;;;;;;;20.44;68.38;99599.16;6348878;28;20048;-74
2023/09/19 05:12:02;;;;;;;0.00;0.00;;;;;;;20.46;68.64;99603.28;6348009;28;20760;-74
2023/09/19 05:15:03;;;;;;;0.00;0.00;;;;;;;20.38;68.44;99602.47;6347840;28;20051;-74
2023/09/19 05:18:05;;;;;;;;;;;;;;;20.36;68.55;99607.13;6348322;28;20040;-72
2023/09/19 05:21:08;;;;;;;0.00;0.00;;;;;;;20.35;68.63;99603.66;6347804;28;19926;-74
2023/09/19 05:24:11;;;;;;;0.00;0.00;;;;;;;20.35;68.34;99598.34;6347780;28;20087;-74
2023/09/19 05:27:12;;;;;;;0.00;0.00;;;;;;;20.51;67.86;99600.97;6347420;28;20478;-74
2023/09/19 05:30:14;;;;;;;0.00;0.00;;;;;;;20.53;68.29;99595.50;6347745;28;20075;-74
2023/09/19 05:33:18;;;;;;;0.00;0.00;;;;;;;20.50;68.41;99596.66;6348550;28;20774;-74
2023/09/19 05:36:19;;;;;;;0.00;0.00;;;;;;;20.47;68.48;99597.00;6344748;28;20055;-74
2023/09/19 05:39:20;;;;;;;0.00;0.00;;;;;;;20.54;67.92;99592.66;6345063;28;20093;-73
2023/09/19 05:42:21;;;;;;;0.00;0.00;;;;;;;20.56;67.83;99586.38;6347099;28;20117;-74
2023/09/19 05:45:27;;;;;;;0.00;0.00;;;;;;;20.53;68.37;99585.72;6347115;28;20047;-73
2023/09/19 05:48:30;;;;;;;0.00;0.00;;;;;;;20.61;67.89;99578.75;6346616;28;20384;-71
2023/09/19 05:51:31;;;;;;;0.00;0.00;;;;;;;20.73;68.40;99588.00;6347628;28;20047;-71
2023/09/19 05:54:34;;;;;;;0.20;0.10;;;;;;;20.76;68.17;99587.69;6347784;28;20454;-71
2023/09/19 05:57:35;;;;;;;0.00;0.00;;;;;;;20.76;67.34;99582.38;6346286;28;20770;-72
2023/09/19 06:00:38;;;;;;;0.63;0.53;;;;;;;20.78;67.64;99590.16;6346606;28;20491;-74
2023/09/19 06:03:39;;;;;;;0.00;0.00;;;;;;;20.77;67.45;99588.50;6346725;28;20051;-74
2023/09/19 06:06:40;;;;;;;0.20;0.20;;;;;;;20.90;67.23;99581.66;6346237;28;20060;-74
2023/09/19 06:09:41;;;;;;;0.23;0.20;;;;;;;21.05;66.92;99587.06;6346501;28;20050;-74
2023/09/19 06:12:45;;;;;;;0.00;0.00;;;;;;;21.04;66.98;99579.28;6347627;28;20138;-73
2023/09/19 06:15:49;;;;;;;0.00;0.00;;;;;;;21.09;66.96;99580.41;6347569;28;20052;-74
2023/09/19 06:18:50;;;;;;;0.00;0.00;;;;;;;21.11;66.69;99580.25;6346840;28;20050;-72
2023/09/19 06:21:53;;;;;;;0.63;0.55;;;;;;;21.09;67.07;99585.72;6346207;28;20488;-71
2023/09/19 06:24:54;;;;;;;0.00;0.00;;;;;;;21.12;66.87;99587.19;6345981;28;20354;-72
2023/09/19 06:27:56;;;;;;;0.00;0.00;;;;;;;21.18;66.70;99577.72;6345746;28;20460;-72
2023/09/19 06:30:57;;;;;;;0.00;0.00;;;;;;;21.12;66.29;99595.16;6347015;28;20142;-71
2023/09/19 06:33:58;;;;;;;0.00;0.00;;;;;;;21.15;66.15;99578.91;6345633;28;20194;-71
2023/09/19 06:37:03;;;;;;;0.00;0.00;;;;;;;21.05;66.38;99584.41;6345676;28;20054;-72
2023/09/19 06:40:14;;;;;;;0.00;0.00;;;;;;;21.53;65.65;99576.38;6345513;28;20074;-71
2023/09/19 06:43:18;;;;;;;0.00;0.00;;;;;;;21.47;65.37;99575.25;6346850;28;20052;-70
2023/09/19 06:46:19;;;;;;;0.00;0.00;;;;;;;21.69;64.89;99578.09;6346574;28;20075;-73
2023/09/19 06:49:20;;;;;;;0.00;0.00;;;;;;;21.57;64.67;99583.00;6345741;28;20065;-73
2023/09/19 06:52:22;;;;;;;0.00;0.00;;;;;;;21.83;64.82;99587.94;6346655;28;20591;-71
2023/09/19 06:55:27;;;;;;;;;;;;;;;21.89;65.04;99594.38;6347299;28;20507;-71
2023/09/19 06:58:28;;;;;;;0.10;0.10;;;;;;;22.06;63.75;99581.78;6346713;28;19920;-71
2023/09/19 07:01:29;;;;;;;0.00;0.00;;;;;;;22.35;64.55;99582.88;6345870;28;20438;-71
2023/09/19 07:04:30;;;;;;;0.00;0.00;;;;;;;22.16;63.59;99595.66;6346794;28;20068;-73
2023/09/19 07:07:34;;;;;;;0.00;0.00;;;;;;;22.17;64.10;99597.28;6346197;28;20066;-73
2023/09/19 07:10:35;;;;;;;0.00;0.00;;;;;;;22.04;64.71;99599.75;6346308;28;20566;-71
2023/09/19 07:13:36;;;;;;;0.00;0.00;;;;;;;22.11;64.86;99593.53;6345210;28;20055;-72
2023/09/19 07:16:39;;;;;;;0.00;0.00;;;;;;;22.39;64.47;99594.81;6345308;28;20043;-73
2023/09/19 07:19:40;;;;;;;0.00;0.00;;;;;;;22.30;63.70;99600.22;6346147;28;20498;-73
2023/09/19 07:22:41;;;;;;;0.47;0.47;;;;;;;22.44;64.13;99597.72;6346428;28;20415;-74
2023/09/19 07:25:41;;;;;;;0.00;0.00;;;;;;;22.56;64.42;99600.78;6345180;28;20131;-74
2023/09/19 07:28:42;;;;;;;0.00;0.00;;;;;;;22.43;64.58;99599.56;6345260;28;20101;-72
2023/09/19 07:31:44;;;;;;;0.00;0.00;;;;;;;22.76;64.51;99598.41;6345231;28;20516;-74
2023/09/19 07:34:45;;;;;;;0.00;0.00;;;;;;;22.74;64.20;99591.44;6346219;28;20157;-74
2023/09/19 07:37:49;;;;;;;0.00;0.00;;;;;;;22.85;64.65;99595.44;6345615;28;20044;-74
2023/09/19 07:40:50;;;;;;;0.00;0.00;;;;;;;22.69;64.99;99598.28;6344806;28;20073;-73
2023/09/19 07:43:52;;;;;;;0.00;0.00;;;;;;;22.93;66.00;99598.00;6346309;28;20044;-71
2023/09/19 07:46:53;;;;;;;0.00;0.00;;;;;;;23.20;64.80;99598.38;6345911;28;20098;-71
2023/09/19 07:49:56;;;;;;;0.00;0.00;;;;;;;23.08;65.05;99605.19;6344834;28;20105;-73
2023/09/19 07:52:58;;;;;;;0.00;0.00;;;;;;;22.96;65.77;99594.19;6345963;28;20546;-70
2023/09/19 07:56:03;;;;;;;;;;;;;;;22.74;65.58;99598.59;6345377;28;20100;-71
2023/09/19 07:59:04;;;;;;;0.15;0.15;;;;;;;22.80;66.05;99597.03;6344677;28;19919;-73
2023/09/19 08:02:05;;;;;;;0.00;0.00;;;;;;;22.88;67.54;99597.75;6345818;28;20094;-73
2023/09/19 08:05:09;;;;;;;0.00;0.00;;;;;;;22.79;66.85;99603.34;6344564;28;20540;-71
2023/09/19 08:08:13;;;;;;;0.00;0.00;;;;;;;22.63;67.47;99607.84;6320275;28;20086;-71
2023/09/19 08:11:21;;;;;;;0.00;0.00;;;;;;;22.63;68.25;99607.00;6321576;28;20370;-72
2023/09/19 08:14:23;;;;;;;0.28;0.10;;;;;;;22.73;68.57;99621.69;6323819;28;20077;-71
2023/09/19 08:17:24;;;;;;;0.10;0.10;;;;;;;22.70;68.78;99613.25;6325246;28;20048;-71
2023/09/19 08:20:25;;;;;;;0.00;0.00;;;;;;;22.76;69.44;99612.53;6323629;28;20082;-71
2023/09/19 08:23:26;;;;;;;0.00;0.00;;;;;;;22.85;69.13;99608.75;6323736;28;20044;-71
2023/09/19 08:26:28;;;;;;;0.00;0.00;;;;;;;22.79;68.95;99621.97;6323769;28;20052;-74
2023/09/19 08:29:29;;;;;;;;;;;;;;;22.92;68.77;99619.50;6324076;28;20051;-74
2023/09/19 08:32:30;;;;;;;0.00;0.00;;;;;;;22.88;68.69;99619.03;6324724;28;20049;-74
2023/09/19 08:35:33;;;;;;;0.00;0.00;;;;;;;22.96;69.23;99614.63;6324789;28;20048;-74
2023/09/19 08:38:36;;;;;;;0.20;0.20;;;;;;;23.07;68.81;99607.03;6323367;28;20048;-71
2023/09/19 08:41:37;;;;;;;0.40;0.40;;;;;;;23.17;69.21;99609.41;6323256;28;20052;-71
2023/09/19 08:44:42;;;;;;;0.00;0.00;;;;;;;23.30;68.61;99620.19;6323289;28;20157;-71
2023/09/19 08:47:51;;;;;;;0.00;0.00;;;;;;;23.11;68.75;99613.63;6324046;28;20534;-71
2023/09/19 08:51:01;;;;;;;0.22;0.10;;;;;;;23.17;68.87;99605.94;6324364;28;20109;-71
2023/09/19 08:54:09;;;;;;;0.03;0.03;;;;;;;23.42;68.84;99607.22;6324276;28;20468;-74
2023/09/19 08:57:11;;;;;;;0.00;0.00;;;;;;;23.44;67.05;99610.53;6324336;28;20100;-71
2023/09/19 09:00:14;;;;;;;0.00;0.00;;;;;;;23.79;67.43;99607.25;6322780;28;20404;-74
2023/09/19 09:03:20;;;;;;;0.20;0.20;;;;;;;23.75;66.45;99596.09;6324285;28;20048;-74
2023/09/19 09:06:23;;;;;;;0.00;0.00;;;;;;;24.02;66.66;99601.72;6334403;28;20579;-74
2023/09/19 09:09:24;;;;;;;0.00;0.00;;;;;;;24.06;65.96;99598.47;6349262;28;20047;-74
2023/09/19 09:12:26;;;;;;;0.00;0.00;;;;;;;24.14;65.36;99598.31;6349145;28;20086;-74
2023/09/19 09:15:30;;;;;;;0.00;0.00;;;;;;;23.92;66.24;99591.38;6348082;28;20079;-71
2023/09/19 09:18:31;;;;;;;0.00;0.00;;;;;;;24.02;65.62;99591.84;6347679;28;20566;-72
2023/09/19 09:21:37;;;;;;;0.17;0.17;;;;;;;24.10;65.61;99580.25;6347915;28;20048;-72
2023/09/19 09:24:53;;;;;;;0.00;0.00;;;;;;;24.05;65.28;99569.31;6348333;28;20082;-75
2023/09/19 09:28:04;;;;;;;0.00;0.00;;;;;;;24.19;65.15;99581.75;6348830;28;20055;-72
2023/09/19 09:31:09;;;;;;;0.20;0.20;;;;;;;24.14;64.53;99574.34;6347388;28;20047;-74
2023/09/19 09:34:13;;;;;;;0.00;0.00;;;;;;;24.20;63.88;99574.59;6348597;28;20491;-74
2023/09/19 09:37:21;;;;;;;0.00;0.00;;;;;;;24.41;63.08;99569.19;6348563;28;20065;-74
2023/09/19 09:40:35;;;;;;;0.00;0.00;;;;;;;24.29;63.01;99573.41;6348514;28;20552;-71
2023/09/19 09:43:40;;;;;;;1.20;0.60;;;;;;;24.28;62.39;99563.78;6348208;28;20106;-72
2023/09/19 09:50:06;;;;;;;0.00;0.00;;;;;;;24.23;61.75;99566.19;6348006;27;20044;-72
2023/09/19 09:53:32;;;;;;;0.00;0.00;;;;;;;24.07;61.94;99569.97;6348350;28;20047;-72
2023/09/19 09:56:34;;;;;;;0.00;0.00;;;;;;;24.09;62.64;99574.09;6346813;28;20090;-73
2023/09/19 09:59:49;;;;;;;0.00;0.00;;;;;;;24.17;63.10;99564.31;6346840;28;20475;-74
2023/09/19 10:02:50;;;;;;;0.00;0.00;;;;;;;24.01;63.00;99565.41;6346679;28;20115;-73
2023/09/19 10:05:55;;;;;;;0.57;0.45;;;;;;;24.17;63.13;99569.63;6346593;28;20511;-74
2023/09/19 10:09:05;;;;;;;0.00;0.00;;;;;;;24.21;63.72;99555.72;6347593;28;20493;-74
2023/09/19 10:12:08;;;;;;;0.00;0.00;;;;;;;24.33;64.27;99569.34;6346384;28;20518;-74
2023/09/19 10:15:15;;;;;;;0.10;0.10;;;;;;;24.32;62.20;99563.19;6347434;28;20441;-71
2023/09/19 10:18:24;;;;;;;0.00;0.00;;;;;;;24.47;62.67;99563.06;6346169;28;20407;-71
2023/09/19 10:21:25;;;;;;;0.00;0.00;;;;;;;24.51;61.97;99560.88;6347181;28;20047;-71
2023/09/19 10:24:28;;;;;;;0.00;0.00;;;;;;;24.47;62.67;99570.25;6347255;28;20055;-72
2023/09/19 10:27:37;;;;;;;0.00;0.00;;;;;;;24.48;62.13;99566.56;6347153;28;20052;-71
2023/09/19 10:30:45;;;;;;;0.00;0.00;;;;;;;24.48;61.98;99558.56;6346997;28;20538;-71
2023/09/19 10:33:49;;;;;;;0.00;0.00;;;;;;;24.49;60.81;99552.22;6343917;28;20054;-72
2023/09/19 10:36:51;;;;;;;0.00;0.00;;;;;;;24.61;59.67;99556.00;6337512;28;20051;-71
2023/09/19 10:39:54;;;;;;;0.00;0.00;;;;;;;24.51;58.96;99551.03;6341174;28;20046;-71
2023/09/19 10:43:02;;;;;;;0.00;0.00;;;;;;;24.50;59.65;99554.72;6345472;28;20058;-71
2023/09/19 10:46:12;;;;;;;0.10;0.10;;;;;;;24.42;58.83;99557.53;6343357;27;20124;-71
2023/09/19 10:49:13;;;;;;;0.00;0.00;;;;;;;24.67;58.78;99549.06;6342059;28;20093;-71
2023/09/19 10:52:23;;;;;;;0.00;0.00;;;;;;;24.70;58.70;99546.81;6344280;28;20055;-72
2023/09/19 10:55:29;;;;;;;0.17;0.17;;;;;;;24.59;59.28;99544.72;6339099;28;20551;-71
2023/09/19 10:58:39;;;;;;;0.00;0.00;;;;;;;24.51;59.33;99535.03;6344065;28;20049;-72
2023/09/19 11:01:51;;;;;;;0.00;0.00;;;;;;;24.66;59.39;99536.75;6345071;28;20476;-72
2023/09/19 11:04:53;;;;;;;0.20;0.13;;;;;;;24.44;60.16;99525.31;6344655;28;20043;-72
2023/09/19 11:08:00;;;;;;;0.10;0.10;;;;;;;24.47;60.17;99528.41;6344702;28;20063;-72
2023/09/19 11:11:03;;;;;;;0.00;0.00;;;;;;;24.58;61.48;99531.56;6345787;28;20927;-71
2023/09/19 11:14:25;;;;;;;0.00;0.00;;;;;;;24.41;61.16;99526.53;6346054;28;20052;-71
2023/09/19 11:17:45;;;;;;;0.03;0.03;;;;;;;24.48;62.08;99532.75;6338954;28;20044;-71
2023/09/19 11:20:51;;;;;;;0.10;0.10;;;;;;;24.50;64.42;99532.53;6343553;28;20040;-71
2023/09/19 11:24:27;;;;;;;0.00;0.00;;;;;;;24.41;65.57;99533.72;6345773;28;20495;-71
2023/09/19 11:27:29;;;;;;;0.00;0.00;;;;;;;24.48;65.40;99524.75;6344674;28;20449;-71
2023/09/19 11:30:32;;;;;;;0.10;0.10;;;;;;;24.50;65.62;99525.41;6344379;28;20430;-71
2023/09/19 11:33:33;;;;;;;0.73;0.05;;;;;;;24.32;68.35;99533.88;6345740;28;20491;-71
2023/09/19 11:36:38;;;;;;;0.00;0.00;;;;;;;24.32;68.82;99536.53;6345284;28;20040;-71
2023/09/19 11:39:42;;;;;;;0.00;0.00;;;;;;;24.75;68.61;99530.22;6344281;28;20047;-71
2023/09/19 11:42:53;;;;;;;0.00;0.00;;;;;;;24.65;68.05;99541.25;6344541;28;20501;-71
2023/09/19 11:45:59;;;;;;;0.00;0.00;;;;;;;24.50;67.48;99530.72;6345505;28;20059;-71
2023/09/19 11:49:13;;;;;;;0.00;0.00;;;;;;;24.51;68.10;99529.69;6349853;28;20071;-71
2023/09/19 11:52:24;;;;;;;0.00;0.00;;;;;;;24.48;68.58;99523.88;6383679;27;20051;-71
2023/09/19 11:55:30;;;;;;;0.00;0.00;;;;;;;24.74;67.91;99525.91;6348463;28;20055;-71
2023/09/19 11:58:33;;;;;;;0.00;0.00;;;;;;;24.98;66.80;99527.25;6351139;28;20074;-72
2023/09/19 12:01:34;;;;;;;0.00;0.00;;;;;;;24.74;66.85;99524.06;6350742;28;20063;-73
2023/09/19 12:04:41;;;;;;;;;;;;;;;24.99;67.50;99520.88;6349398;28;20047;-74
2023/09/19 12:07:45;;;;;;;0.00;0.00;;;;;;;24.68;66.92;99524.84;6350315;28;19919;-73
2023/09/19 12:10:51;;;;;;;0.00;0.00;;;;;;;24.59;68.48;99514.56;6350619;28;20043;-73
2023/09/19 12:13:53;;;;;;;0.00;0.00;;;;;;;24.50;69.03;99528.06;6349357;28;20054;-73
2023/09/19 12:16:55;;;;;;;0.00;0.00;;;;;;;24.18;69.51;99533.97;6349365;28;20055;-73
2023/09/19 12:19:56;;;;;;;0.00;0.00;;;;;;;23.97;70.05;99532.16;6349336;28;20059;-73
2023/09/19 12:22:58;;;;;;;0.00;0.00;;;;;;;23.90;71.25;99529.47;6349240;28;20437;-73
2023/09/19 12:26:11;;;;;;;0.00;0.00;;;;;;;23.85;70.85;99539.88;6349182;28;20065;-73
2023/09/19 12:29:17;;;;;;;0.00;0.00;;;;;;;23.76;71.48;99544.47;6350180;28;20403;-73
2023/09/19 12:32:34;;;;;;;0.00;0.00;;;;;;;23.71;71.39;99545.03;6345665;28;20063;-73
2023/09/19 12:35:35;;;;;;;0.00;0.00;;;;;;;23.65;71.38;99551.13;6348378;28;20055;-73
2023/09/19 12:38:36;;;;;;;0.65;0.40;;;;;;;23.61;70.31;99551.72;6348779;28;20552;-73
2023/09/19 12:41:38;;;;;;;0.00;0.00;;;;;;;23.46;70.52;99554.44;6349473;28;20051;-73
2023/09/19 12:44:42;;;;;;;0.00;0.00;;;;;;;23.24;70.99;99561.56;6349821;28;20052;-73
2023/09/19 12:48:29;;;;;;;0.00;0.00;;;;;;;23.10;71.47;99569.41;6349976;28;20043;-73
2023/09/19 12:51:36;;;;;;;0.00;0.00;;;;;;;23.33;70.32;99565.78;6349045;28;20123;-74
2023/09/19 12:54:40;;;;;;;0.00;0.00;;;;;;;23.49;69.38;99554.06;6333269;28;20052;-73
2023/09/19 12:57:41;;;;;;;0.00;0.00;;;;;;;23.61;68.72;99567.69;6323259;28;20491;-74
2023/09/19 13:00:47;;;;;;;0.00;0.00;;;;;;;23.54;68.76;99565.78;6324382;28;20051;-73
2023/09/19 13:04:25;;;;;;;0.00;0.00;;;;;;;23.64;68.28;99575.28;6324129;28;20054;-73
2023/09/19 13:07:46;;;;;;;0.00;0.00;;;;;;;23.63;68.51;99576.31;6356669;27;20113;-73
2023/09/19 13:11:21;;;;;;;0.00;0.00;;;;;;;23.69;68.01;99579.03;6356773;27;20402;-73
2023/09/19 13:14:23;;;;;;;0.00;0.00;;;;;;;23.59;68.47;99581.19;6312154;28;20487;-73
2023/09/19 13:17:25;;;;;;;0.00;0.00;;;;;;;23.51;69.69;99591.97;6341889;28;20039;-73
2023/09/19 13:20:27;;;;;;;0.00;0.00;;;;;;;23.15;69.52;99590.13;6344338;28;20036;-74
2023/09/19 13:23:28;;;;;;;0.00;0.00;;;;;;;23.03;71.78;99591.63;6348928;28;20099;-73
2023/09/19 13:26:29;;;;;;;0.00;0.00;;;;;;;22.91;71.10;99599.22;6347787;28;20398;-73
2023/09/19 13:29:30;;;;;;;0.00;0.00;;;;;;;23.15;71.43;99603.44;6347531;28;20322;-73
2023/09/19 13:32:32;;;;;;;0.00;0.00;;;;;;;23.22;71.22;99600.84;6347388;28;20442;-73
2023/09/19 13:35:33;;;;;;;0.00;0.00;;;;;;;23.13;71.25;99611.59;6346519;28;20043;-74
2023/09/19 13:38:34;;;;;;;0.00;0.00;;;;;;;23.11;70.89;99608.31;6347331;28;20488;-73
2023/09/19 13:41:38;;;;;;;0.00;0.00;;;;;;;23.49;70.80;99604.63;6348415;28;20092;-74
2023/09/19 13:44:41;;;;;;;0.00;0.00;;;;;;;23.40;69.88;99608.44;6347338;28;20054;-73
2023/09/19 13:47:41;;;;;;;0.00;0.00;;;;;;;23.26;70.18;99608.28;6348320;28;20044;-73
2023/09/19 13:50:43;;;;;;;0.00;0.00;;;;;;;23.07;71.22;99619.50;6346377;28;20396;-73
2023/09/19 13:53:44;;;;;;;0.00;0.00;;;;;;;23.15;71.55;99615.94;6346875;28;20427;-73
2023/09/19 13:56:44;;;;;;;0.00;0.00;;;;;;;22.80;73.13;99611.16;6346398;28;20135;-71
2023/09/19 13:59:45;;;;;;;0.00;0.00;;;;;;;22.61;73.55;99617.84;6343849;28;20043;-72
2023/09/19 14:02:47;;;;;;;0.00;0.00;;;;;;;22.64;73.71;99625.44;6346609;28;20055;-71
2023/09/19 14:05:52;;;;;;;0.00;0.00;;;;;;;22.68;74.27;99626.72;6331787;28;20056;-71
2023/09/19 14:08:53;;;;;;;0.00;0.00;;;;;;;22.47;74.46;99621.31;6337613;28;20664;-72
2023/09/19 14:11:54;;;;;;;0.00;0.00;;;;;;;22.68;74.52;99628.56;6341908;28;20134;-71
2023/09/19 14:14:56;;;;;;;0.00;0.00;;;;;;;22.65;74.90;99634.22;6345394;28;20048;-72
2023/09/19 14:17:57;;;;;;;;;;;;;;;22.68;74.65;99634.69;6348079;28;20052;-73
2023/09/19 14:20:58;;;;;;;0.00;0.00;;;;;;;22.64;74.62;99636.06;6347366;28;19965;-72
2023/09/19 14:23:59;;;;;;;0.00;0.00;;;;;;;22.69;74.72;99640.84;6346369;28;20047;-74
2023/09/19 14:26:59;;;;;;;0.00;0.00;;;;;;;22.49;75.16;99641.38;6346485;28;20128;-74
2023/09/19 14:30:00;;;;;;;0.00;0.00;;;;;;;22.40;76.00;99633.66;6347233;28;20290;-73
2023/09/19 14:33:02;;;;;;;0.00;0.00;;;;;;;22.25;76.87;99620.34;6345955;28;20128;-73
2023/09/19 14:36:08;;;;;;;0.00;0.00;;;;;;;22.26;77.02;99625.50;6346199;28;20537;-74